Time;durP1;ratioP1;P1;durP2;ratioP2;P2;SDS_P1;SDS_P2;PMS_P1;PMS_P2;Temp;Humidity;BMP_temperature;BMP_pressure;BME280_temperature;BME280_humidity;BME280_pressure;Samples;Min_cycle;Max_cycle;Signal;HPM_P1;HPM_P2
2021/08/30 00:00:10;;;;;;;3.55;2.75;;;13.80;99.90;;;;;;4123646;28;20501;-62
2021/08/30 00:02:11;;;;;;;4.45;2.30;;;13.70;99.90;;;;;;4123113;28;20422;-62
2021/08/30 00:04:12;;;;;;;3.00;2.70;;;13.70;99.90;;;;;;4123367;28;20026;-61
2021/08/30 00:06:13;;;;;;;3.22;2.55;;;13.70;99.90;;;;;;4123223;28;20574;-61
2021/08/30 00:08:15;;;;;;;4.45;2.60;;;13.70;99.90;;;;;;4123353;28;20050;-61
2021/08/30 00:10:16;;;;;;;2.78;2.33;;;13.70;99.90;;;;;;4123136;28;20042;-62
2021/08/30 00:12:17;;;;;;;5.88;2.05;;;13.70;99.90;;;;;;4123400;28;20050;-62
2021/08/30 00:14:19;;;;;;;3.63;2.40;;;13.70;99.90;;;;;;4123946;28;20043;-62
2021/08/30 00:16:20;;;;;;;2.20;2.08;;;13.70;99.90;;;;;;4122955;28;20094;-62
2021/08/30 00:18:21;;;;;;;2.63;2.40;;;13.70;99.90;;;;;;4124343;28;20061;-61
2021/08/30 00:20:22;;;;;;;3.20;2.22;;;13.60;99.90;;;;;;4125806;28;20077;-61
2021/08/30 00:22:23;;;;;;;2.17;1.98;;;13.70;99.90;;;;;;4126090;28;20086;-62
2021/08/30 00:24:25;;;;;;;3.42;2.60;;;13.70;99.90;;;;;;4126943;28;20046;-60
2021/08/30 00:26:26;;;;;;;2.67;2.20;;;13.70;99.90;;;;;;4126636;28;20478;-62
2021/08/30 00:28:27;;;;;;;2.03;1.92;;;13.70;99.90;;;;;;4126376;28;20023;-61
2021/08/30 00:30:28;;;;;;;1.92;1.83;;;13.70;99.90;;;;;;4126494;28;20710;-61
2021/08/30 00:32:31;;;;;;;5.53;2.15;;;13.70;99.90;;;;;;4125702;28;20050;-62
2021/08/30 00:34:33;;;;;;;1.98;1.77;;;13.60;99.90;;;;;;4125973;28;20434;-62
2021/08/30 00:36:34;;;;;;;1.88;1.67;;;13.70;99.90;;;;;;4126482;28;20042;-62
2021/08/30 00:38:35;;;;;;;3.50;1.75;;;13.60;99.90;;;;;;4126460;28;20104;-62
2021/08/30 00:40:43;;;;;;;4.95;1.98;;;13.60;99.90;;;;;;4126052;28;20069;-62
2021/08/30 00:42:45;;;;;;;3.95;1.70;;;13.60;99.90;;;;;;4126246;28;20136;-62
2021/08/30 00:44:46;;;;;;;1.90;1.70;;;13.60;99.90;;;;;;4125906;28;20442;-60
2021/08/30 00:46:47;;;;;;;4.13;1.67;;;13.60;99.90;;;;;;4125831;28;20038;-62
2021/08/30 00:48:49;;;;;;;5.32;1.40;;;13.60;99.90;;;;;;4126560;28;20096;-61
2021/08/30 00:50:50;;;;;;;3.90;1.90;;;13.60;99.90;;;;;;4125363;28;20539;-63
2021/08/30 00:52:51;;;;;;;2.83;1.70;;;13.40;99.90;;;;;;4126379;28;20855;-61
2021/08/30 00:54:54;;;;;;;3.03;1.55;;;13.40;99.90;;;;;;4126204;28;20038;-61
2021/08/30 00:56:56;;;;;;;9.00;2.03;;;13.50;99.90;;;;;;4126529;28;20023;-61
2021/08/30 00:58:57;;;;;;;5.38;2.28;;;13.50;99.90;;;;;;4125276;28;20130;-62
2021/08/30 01:00:58;;;;;;;3.75;2.33;;;13.40;99.90;;;;;;4126347;28;20084;-62
2021/08/30 01:03:00;;;;;;;3.30;2.30;;;13.50;99.90;;;;;;4125261;28;20030;-62
2021/08/30 01:05:01;;;;;;;4.90;2.17;;;13.40;99.90;;;;;;4125493;28;20441;-62
2021/08/30 01:07:09;;;;;;;2.75;2.20;;;13.50;99.90;;;;;;4125379;28;20104;-60
2021/08/30 01:09:35;;;;;;;2.80;2.03;;;13.50;99.90;;;;;;4125759;28;20054;-62
2021/08/30 01:11:42;;;;;;;4.97;2.20;;;13.50;99.90;;;;;;4125572;28;20150;-62
2021/08/30 01:13:49;;;;;;;3.85;2.15;;;13.40;99.90;;;;;;4125411;28;20034;-62
2021/08/30 01:15:52;;;;;;;5.53;2.70;;;13.50;99.90;;;;;;4125754;28;20913;-63
2021/08/30 01:17:54;;;;;;;3.60;2.13;;;13.50;99.90;;;;;;4125280;28;20355;-63
2021/08/30 01:20:30;;;;;;;2.67;2.20;;;13.40;99.90;;;;;;4125563;28;20084;-63
2021/08/30 01:22:33;;;;;;;3.83;2.20;;;13.40;99.90;;;;;;4125375;28;20050;-62
2021/08/30 01:24:35;;;;;;;2.65;2.40;;;13.40;99.90;;;;;;4126276;28;20089;-63
2021/08/30 01:26:47;;;;;;;4.13;2.47;;;13.40;99.90;;;;;;4125295;28;20101;-62
2021/08/30 01:29:20;;;;;;;4.23;2.60;;;13.40;99.90;;;;;;4125281;28;20085;-62
2021/08/30 01:31:37;;;;;;;3.23;2.10;;;13.40;99.90;;;;;;4125221;28;20482;-62
2021/08/30 01:33:39;;;;;;;4.18;2.22;;;13.40;99.90;;;;;;4124435;28;20565;-62
2021/08/30 01:35:40;;;;;;;2.40;2.00;;;13.40;99.90;;;;;;4125136;28;20084;-62
2021/08/30 01:37:44;;;;;;;2.77;1.70;;;13.30;99.90;;;;;;4125209;28;20042;-63
2021/08/30 01:39:46;;;;;;;3.97;2.00;;;13.30;99.90;;;;;;4125794;28;20098;-62
2021/08/30 01:41:48;;;;;;;1.57;1.43;;;13.20;99.90;;;;;;4125131;28;20510;-63
2021/08/30 01:43:52;;;;;;;4.47;1.90;;;13.20;99.90;;;;;;4124899;28;20909;-61
2021/08/30 01:45:55;;;;;;;2.37;1.87;;;13.10;99.90;;;;;;4125501;28;20034;-62
2021/08/30 01:48:00;;;;;;;2.30;1.63;;;13.10;99.90;;;;;;4125538;28;20050;-63
2021/08/30 01:50:04;;;;;;;6.93;2.40;;;13.00;99.90;;;;;;4124772;28;20042;-62
2021/08/30 01:52:06;;;;;;;2.10;1.90;;;13.00;99.90;;;;;;4124913;28;20061;-62
2021/08/30 01:54:07;;;;;;;4.43;2.33;;;12.90;99.90;;;;;;4125138;28;20058;-61
2021/08/30 01:56:09;;;;;;;4.20;2.60;;;12.90;99.90;;;;;;4125073;28;20080;-62
2021/08/30 02:02:36;;;;;;;3.60;1.73;;;12.90;99.90;;;;;;4125095;28;20116;-62
2021/08/30 02:04:38;;;;;;;4.43;2.13;;;12.90;99.90;;;;;;4124407;28;20042;-62
2021/08/30 02:06:39;;;;;;;2.77;2.00;;;13.00;99.90;;;;;;4124801;28;20042;-61
2021/08/30 02:08:40;;;;;;;1.60;1.50;;;13.00;99.90;;;;;;4124540;28;20045;-62
2021/08/30 02:10:46;;;;;;;4.57;2.23;;;13.00;99.90;;;;;;4124723;28;20042;-62
2021/08/30 02:12:48;;;;;;;2.53;2.00;;;13.00;99.90;;;;;;4124469;28;20109;-61
2021/08/30 02:14:49;;;;;;;3.47;2.27;;;13.10;99.90;;;;;;4124717;28;20431;-62
2021/08/30 02:16:52;;;;;;;4.20;1.80;;;13.00;99.90;;;;;;4124347;28;20101;-62
2021/08/30 02:19:02;;;;;;;3.47;1.93;;;13.10;99.90;;;;;;4125114;28;20054;-62
2021/08/30 02:21:39;;;;;;;3.35;1.85;;;13.10;99.90;;;;;;4124018;28;20073;-62
2021/08/30 02:24:12;;;;;;;2.93;1.90;;;13.10;99.90;;;;;;4124892;28;20093;-62
2021/08/30 02:26:20;;;;;;;5.20;2.57;;;13.10;99.90;;;;;;4124483;28;20081;-61
2021/08/30 02:28:23;;;;;;;7.00;2.33;;;13.20;99.90;;;;;;4124156;28;20442;-62
2021/08/30 02:30:34;;;;;;;6.70;2.30;;;13.20;99.90;;;;;;4123698;28;21030;-62
2021/08/30 02:32:37;;;;;;;5.00;2.30;;;13.20;99.90;;;;;;4124517;28;20100;-63
2021/08/30 02:34:43;;;;;;;5.30;3.43;;;13.20;99.90;;;;;;4124498;28;20048;-62
2021/08/30 02:36:45;;;;;;;8.63;3.23;;;13.20;99.90;;;;;;4124404;28;20082;-62
2021/08/30 02:38:47;;;;;;;5.50;3.53;;;13.20;99.90;;;;;;4124289;28;20042;-62
2021/08/30 02:40:49;;;;;;;6.93;4.70;;;13.10;99.90;;;;;;4123989;28;20046;-61
2021/08/30 02:42:51;;;;;;;7.67;4.17;;;13.10;99.90;;;;;;4123835;28;20042;-62
2021/08/30 02:44:52;;;;;;;6.50;3.93;;;13.20;99.90;;;;;;4124757;28;20474;-62
2021/08/30 02:46:55;;;;;;;3.87;3.30;;;13.20;99.90;;;;;;4123839;28;20030;-62
2021/08/30 02:48:57;;;;;;;6.27;3.67;;;13.20;99.90;;;;;;4124331;28;20034;-62
2021/08/30 02:50:59;;;;;;;4.87;3.17;;;13.20;99.90;;;;;;4123641;28;20424;-62
2021/08/30 02:53:01;;;;;;;4.50;2.93;;;13.20;99.90;;;;;;4123580;28;20050;-62
2021/08/30 02:55:03;;;;;;;5.27;3.13;;;13.20;99.90;;;;;;4123982;28;20042;-62
2021/08/30 02:57:05;;;;;;;6.03;3.13;;;13.20;99.90;;;;;;4123733;28;20084;-61
2021/08/30 02:59:08;;;;;;;4.60;3.00;;;13.20;99.90;;;;;;4124291;28;20361;-61
2021/08/30 03:01:10;;;;;;;3.27;2.83;;;13.20;99.90;;;;;;4123695;28;20046;-62
2021/08/30 03:03:11;;;;;;;3.23;2.93;;;13.20;99.90;;;;;;4123967;28;20035;-61
2021/08/30 03:05:14;;;;;;;4.43;3.03;;;13.20;99.90;;;;;;4123528;28;20108;-61
2021/08/30 03:07:17;;;;;;;3.67;3.10;;;13.20;99.90;;;;;;4123779;28;20026;-61
2021/08/30 03:09:18;;;;;;;5.40;3.57;;;13.20;99.90;;;;;;4123591;28;20799;-62
2021/08/30 03:11:22;;;;;;;7.63;4.25;;;13.20;99.90;;;;;;4123791;28;20100;-61
2021/08/30 03:13:24;;;;;;;4.10;3.70;;;13.10;99.90;;;;;;4123602;28;20088;-62
2021/08/30 03:15:25;;;;;;;7.57;4.00;;;13.00;99.90;;;;;;4123591;28;20456;-61
2021/08/30 03:17:26;;;;;;;7.00;3.87;;;13.10;99.90;;;;;;4122869;28;20038;-62
2021/08/30 03:19:29;;;;;;;4.60;3.27;;;13.10;99.90;;;;;;4123697;28;20080;-62
2021/08/30 03:21:31;;;;;;;4.43;3.63;;;13.10;99.90;;;;;;4123882;28;20085;-62
2021/08/30 03:23:35;;;;;;;4.30;3.37;;;13.10;99.90;;;;;;4123631;28;20050;-62
2021/08/30 03:25:37;;;;;;;6.07;4.10;;;13.10;99.90;;;;;;4123783;28;20384;-62
2021/08/30 03:27:38;;;;;;;4.27;3.57;;;13.10;99.90;;;;;;4123961;28;20050;-62
2021/08/30 03:29:41;;;;;;;7.37;4.07;;;13.10;99.90;;;;;;4123346;28;20084;-62
2021/08/30 03:31:42;;;;;;;6.23;3.83;;;13.10;99.90;;;;;;4122876;28;20030;-61
2021/08/30 03:33:44;;;;;;;3.53;3.03;;;13.20;99.90;;;;;;4123103;28;20093;-62
2021/08/30 03:35:47;;;;;;;3.27;2.87;;;13.20;99.90;;;;;;4122598;28;20038;-62
2021/08/30 03:37:49;;;;;;;3.70;3.27;;;13.20;99.90;;;;;;4123638;28;20022;-62
2021/08/30 03:39:50;;;;;;;4.57;3.63;;;13.20;99.90;;;;;;4123319;28;20038;-62
2021/08/30 03:41:52;;;;;;;4.80;3.40;;;13.20;99.90;;;;;;4123155;28;20073;-61
2021/08/30 03:43:55;;;;;;;7.23;3.40;;;13.20;99.90;;;;;;4122861;28;20034;-62
2021/08/30 03:45:57;;;;;;;7.33;3.67;;;13.20;99.90;;;;;;4122725;28;20026;-62
2021/08/30 03:47:58;;;;;;;3.57;3.23;;;13.20;99.90;;;;;;4123174;28;20502;-61
2021/08/30 03:50:01;;;;;;;4.20;3.80;;;13.20;99.90;;;;;;4123884;28;20034;-62
2021/08/30 03:52:04;;;;;;;9.87;3.53;;;13.10;99.90;;;;;;4123182;28;20975;-62
2021/08/30 03:54:07;;;;;;;5.83;3.40;;;13.20;99.90;;;;;;4106962;28;20085;-62
2021/08/30 03:56:10;;;;;;;4.80;3.23;;;13.20;99.90;;;;;;4110717;28;20042;-62
2021/08/30 03:58:11;;;;;;;4.57;3.60;;;13.30;99.90;;;;;;4122982;28;20142;-62
2021/08/30 04:00:13;;;;;;;7.27;3.43;;;13.20;99.90;;;;;;4122268;28;20093;-63
2021/08/30 04:02:17;;;;;;;6.80;3.90;;;13.30;99.90;;;;;;4121903;28;20038;-63
2021/08/30 04:04:21;;;;;;;5.70;3.50;;;13.30;99.90;;;;;;4121585;28;20038;-62
2021/08/30 04:06:24;;;;;;;3.53;3.20;;;13.30;99.90;;;;;;4123227;28;20030;-63
2021/08/30 04:08:25;;;;;;;6.57;3.70;;;13.30;99.90;;;;;;4122557;28;20553;-63
2021/08/30 04:10:28;;;;;;;4.23;3.73;;;13.30;99.90;;;;;;4122561;28;20042;-63
2021/08/30 04:12:29;;;;;;;7.97;3.80;;;13.30;99.90;;;;;;4122656;28;20034;-62
2021/08/30 04:14:31;;;;;;;7.80;4.27;;;13.30;99.90;;;;;;4122914;28;20837;-63
2021/08/30 04:16:32;;;;;;;4.03;3.13;;;13.30;99.90;;;;;;4122035;28;20034;-63
2021/08/30 04:18:35;;;;;;;4.73;3.37;;;13.30;99.90;;;;;;4121752;28;20046;-63
2021/08/30 04:20:37;;;;;;;5.57;3.83;;;13.30;99.90;;;;;;4122807;28;20038;-63
2021/08/30 04:22:38;;;;;;;9.63;3.83;;;13.30;99.90;;;;;;4122513;28;20054;-63
2021/08/30 04:24:40;;;;;;;4.23;3.50;;;13.30;99.90;;;;;;4123285;28;20088;-63
2021/08/30 04:26:41;;;;;;;5.33;3.67;;;13.30;99.90;;;;;;4122351;28;20460;-64
2021/08/30 04:28:42;;;;;;;6.68;3.60;;;13.40;99.90;;;;;;4123247;28;20050;-65
2021/08/30 04:30:43;;;;;;;4.75;3.30;;;13.30;99.90;;;;;;4122860;28;20097;-63
2021/08/30 04:32:44;;;;;;;5.00;3.13;;;13.30;99.90;;;;;;4122436;28;20042;-64
2021/08/30 04:34:46;;;;;;;3.37;2.53;;;13.30;99.90;;;;;;4122723;28;20097;-64
2021/08/30 04:36:47;;;;;;;3.73;2.60;;;13.30;99.90;;;;;;4123484;28;20093;-63
2021/08/30 04:38:48;;;;;;;4.77;2.60;;;13.30;99.90;;;;;;4123084;28;20038;-64
2021/08/30 04:40:49;;;;;;;4.80;2.10;;;13.30;99.90;;;;;;4122802;28;20038;-63
2021/08/30 04:42:50;;;;;;;5.27;3.03;;;13.30;99.90;;;;;;4122495;28;21031;-63
2021/08/30 04:44:51;;;;;;;8.80;2.77;;;13.30;99.90;;;;;;4122979;28;20038;-65
2021/08/30 04:46:52;;;;;;;7.00;2.37;;;13.30;99.90;;;;;;4122120;28;20423;-64
2021/08/30 04:48:53;;;;;;;4.63;2.30;;;13.30;99.90;;;;;;4122197;28;20100;-64
2021/08/30 04:50:55;;;;;;;8.88;2.63;;;13.30;99.90;;;;;;4119497;28;20089;-64
2021/08/30 04:52:56;;;;;;;5.10;2.43;;;13.30;99.90;;;;;;4122187;28;20455;-64
2021/08/30 04:54:57;;;;;;;5.23;4.23;;;13.30;99.90;;;;;;4122675;28;20097;-63
2021/08/30 04:56:58;;;;;;;4.88;3.42;;;13.30;99.90;;;;;;4122115;28;20038;-63
2021/08/30 04:58:59;;;;;;;2.63;2.43;;;13.30;99.90;;;;;;4122145;28;20097;-63
2021/08/30 05:01:02;;;;;;;2.67;2.10;;;13.30;99.90;;;;;;4119929;28;20039;-63
2021/08/30 05:03:03;;;;;;;6.33;2.13;;;13.30;99.90;;;;;;4118051;28;20177;-63
2021/08/30 05:05:05;;;;;;;3.70;2.50;;;13.30;99.90;;;;;;4118797;28;20035;-62
2021/08/30 05:07:06;;;;;;;3.20;2.27;;;13.40;99.90;;;;;;4119774;28;20038;-63
2021/08/30 05:09:07;;;;;;;3.60;2.33;;;13.40;99.90;;;;;;4119065;28;20097;-64
2021/08/30 05:11:08;;;;;;;4.43;2.33;;;13.50;99.90;;;;;;4117702;28;20031;-64
2021/08/30 05:13:09;;;;;;;2.80;2.50;;;13.60;99.90;;;;;;4132612;28;20050;-63
2021/08/30 05:15:11;;;;;;;5.33;2.53;;;13.60;99.90;;;;;;4119575;28;21770;-64
2021/08/30 05:17:12;;;;;;;4.38;2.70;;;13.60;99.90;;;;;;4126678;28;20150;-63
2021/08/30 05:19:13;;;;;;;7.70;3.30;;;13.60;99.90;;;;;;4130468;28;20030;-64
2021/08/30 05:21:14;;;;;;;4.73;3.63;;;13.50;99.90;;;;;;4131485;28;20037;-63
2021/08/30 05:23:18;;;;;;;5.80;4.27;;;13.60;99.90;;;;;;4129405;28;20046;-64
2021/08/30 05:25:19;;;;;;;7.70;4.70;;;13.70;99.90;;;;;;4125821;28;20030;-63
2021/08/30 05:27:20;;;;;;;9.18;5.68;;;13.80;99.90;;;;;;4127376;28;20092;-64
2021/08/30 05:29:21;;;;;;;4.70;4.30;;;13.80;99.90;;;;;;4130049;28;20058;-63
2021/08/30 05:31:22;;;;;;;4.17;3.50;;;13.80;99.90;;;;;;4125880;28;20101;-64
2021/08/30 05:33:23;;;;;;;4.90;3.65;;;13.80;99.90;;;;;;4128878;28;20050;-66
2021/08/30 05:35:25;;;;;;;4.30;3.80;;;13.90;99.90;;;;;;4141768;28;20041;-64
2021/08/30 05:37:26;;;;;;;4.22;3.03;;;13.90;99.90;;;;;;4127582;28;20108;-66
2021/08/30 05:39:28;;;;;;;3.65;3.08;;;14.00;99.90;;;;;;4128502;28;20073;-66
2021/08/30 05:41:30;;;;;;;4.53;3.30;;;14.00;99.90;;;;;;4128399;28;20947;-63
2021/08/30 05:43:31;;;;;;;3.50;2.40;;;14.00;99.90;;;;;;4127639;28;20126;-64
2021/08/30 05:45:33;;;;;;;7.90;2.92;;;14.00;99.90;;;;;;4128178;28;20059;-62
2021/08/30 05:47:34;;;;;;;5.38;2.50;;;14.10;99.90;;;;;;4128301;28;20058;-63
2021/08/30 05:49:37;;;;;;;6.47;2.92;;;14.20;99.90;;;;;;4128742;28;20037;-63
2021/08/30 05:51:38;;;;;;;4.55;2.72;;;14.30;99.90;;;;;;4128670;28;20089;-64
2021/08/30 05:53:40;;;;;;;6.65;2.28;;;14.40;99.90;;;;;;4124036;28;20038;-62
2021/08/30 05:55:41;;;;;;;6.32;3.80;;;14.50;99.90;;;;;;4124794;28;20069;-63
2021/08/30 05:57:42;;;;;;;5.03;2.45;;;14.70;99.90;;;;;;4124743;28;20635;-62
2021/08/30 05:59:45;;;;;;;5.00;2.30;;;14.70;99.90;;;;;;4128319;28;20042;-63
2021/08/30 06:01:46;;;;;;;4.50;2.78;;;14.80;99.90;;;;;;4127204;28;20018;-63
2021/08/30 06:03:47;;;;;;;3.80;2.50;;;14.90;99.90;;;;;;4127631;28;20398;-63
2021/08/30 06:05:48;;;;;;;4.88;2.47;;;15.00;99.90;;;;;;4127301;28;20026;-62
2021/08/30 06:07:49;;;;;;;5.10;2.95;;;15.00;99.90;;;;;;4126791;28;20037;-62
2021/08/30 06:09:51;;;;;;;5.18;2.75;;;15.10;99.90;;;;;;4126862;28;20042;-63
2021/08/30 06:11:52;;;;;;;11.30;3.95;;;15.40;99.90;;;;;;4127582;28;20034;-64
2021/08/30 06:13:53;;;;;;;4.28;3.78;;;15.80;99.90;;;;;;4122983;28;20108;-65
2021/08/30 06:15:55;;;;;;;6.90;2.97;;;16.40;99.90;;;;;;4114047;28;20132;-64
2021/08/30 06:17:56;;;;;;;5.38;2.58;;;16.90;99.90;;;;;;4120304;28;20034;-65
2021/08/30 06:19:57;;;;;;;9.38;3.63;;;16.80;99.90;;;;;;4119526;28;20084;-64
2021/08/30 06:21:59;;;;;;;6.60;4.80;;;16.90;99.90;;;;;;4120036;28;20042;-64
2021/08/30 06:24:00;;;;;;;9.23;4.85;;;16.70;99.90;;;;;;4124036;28;20462;-64
2021/08/30 06:26:01;;;;;;;7.28;4.90;;;16.60;99.90;;;;;;4125035;28;20038;-65
2021/08/30 06:28:02;;;;;;;8.35;5.50;;;16.30;99.90;;;;;;4122568;28;20034;-65
2021/08/30 06:30:04;;;;;;;12.00;7.28;;;16.10;99.90;;;;;;4123447;28;20038;-64
2021/08/30 06:32:05;;;;;;;19.50;14.02;;;16.00;99.90;;;;;;4118391;28;20030;-64
2021/08/30 06:34:07;;;;;;;8.70;6.32;;;16.00;99.90;;;;;;4120014;28;20722;-65
2021/08/30 06:36:09;;;;;;;20.35;13.65;;;16.20;99.90;;;;;;4118307;28;20490;-64
2021/08/30 06:38:11;;;;;;;7.25;5.93;;;16.40;99.90;;;;;;4119652;28;20451;-65
2021/08/30 06:40:13;;;;;;;8.68;6.95;;;16.40;99.90;;;;;;4118846;28;20081;-64
2021/08/30 06:42:14;;;;;;;12.50;8.25;;;16.70;99.90;;;;;;4119602;28;20034;-64
2021/08/30 06:44:15;;;;;;;19.70;7.35;;;16.90;99.90;;;;;;4119139;28;20069;-63
2021/08/30 06:46:16;;;;;;;7.68;6.68;;;16.70;99.90;;;;;;4121627;28;20046;-64
2021/08/30 06:48:17;;;;;;;10.93;6.90;;;16.60;99.90;;;;;;4123850;28;20763;-63
2021/08/30 06:50:19;;;;;;;9.18;6.97;;;16.80;99.90;;;;;;4124728;28;20069;-64
2021/08/30 06:52:20;;;;;;;6.38;5.13;;;17.10;99.90;;;;;;4123574;28;20030;-64
2021/08/30 06:54:21;;;;;;;8.18;5.95;;;17.30;99.90;;;;;;4122556;28;20158;-63
2021/08/30 06:56:22;;;;;;;8.15;5.47;;;17.40;99.90;;;;;;4124660;28;20054;-64
2021/08/30 06:58:24;;;;;;;9.25;4.57;;;17.50;99.90;;;;;;4124217;28;20113;-65
2021/08/30 07:00:25;;;;;;;8.20;3.80;;;17.50;99.90;;;;;;4124266;28;20092;-65
2021/08/30 07:02:26;;;;;;;4.57;3.25;;;17.40;99.90;;;;;;4123370;28;20061;-64
2021/08/30 07:04:27;;;;;;;4.10;3.03;;;17.30;99.90;;;;;;4124131;28;20100;-64
2021/08/30 07:06:28;;;;;;;4.80;3.40;;;17.10;99.90;;;;;;4123720;28;20092;-63
2021/08/30 07:08:29;;;;;;;3.83;3.00;;;17.00;99.90;;;;;;4122976;28;20034;-63
2021/08/30 07:10:30;;;;;;;5.03;3.15;;;16.90;99.90;;;;;;4123091;28;20544;-63
2021/08/30 07:12:31;;;;;;;4.97;3.42;;;16.70;99.90;;;;;;4124033;28;20101;-63
2021/08/30 07:14:33;;;;;;;4.50;3.22;;;16.60;99.90;;;;;;4123314;28;20489;-63
2021/08/30 07:16:34;;;;;;;7.72;3.05;;;16.50;99.90;;;;;;4123370;28;20034;-63
2021/08/30 07:18:35;;;;;;;6.80;3.75;;;16.40;99.90;;;;;;4123277;28;20038;-64
2021/08/30 07:20:36;;;;;;;6.43;3.72;;;16.40;99.90;;;;;;4123789;28;20057;-63
2021/08/30 07:22:37;;;;;;;4.82;3.83;;;16.60;99.90;;;;;;4122494;28;20112;-64
2021/08/30 07:24:39;;;;;;;5.93;3.90;;;17.10;99.90;;;;;;4122597;28;20463;-63
2021/08/30 07:26:40;;;;;;;6.65;4.18;;;17.20;99.90;;;;;;4123917;28;20034;-64
2021/08/30 07:28:41;;;;;;;5.22;3.90;;;17.30;99.90;;;;;;4123150;28;20042;-63
2021/08/30 07:30:43;;;;;;;6.28;3.15;;;17.30;99.90;;;;;;4123373;28;20400;-63
2021/08/30 07:32:44;;;;;;;5.07;3.05;;;17.20;99.90;;;;;;4122509;28;20530;-64
2021/08/30 07:34:45;;;;;;;9.43;4.22;;;17.00;99.90;;;;;;4122860;28;20046;-63
2021/08/30 07:36:48;;;;;;;5.88;3.90;;;16.90;99.90;;;;;;4122863;28;20030;-64
2021/08/30 07:38:49;;;;;;;5.53;2.78;;;16.90;99.90;;;;;;4122957;28;20093;-64
2021/08/30 07:40:50;;;;;;;4.88;2.75;;;16.80;99.90;;;;;;4123286;28;20788;-64
2021/08/30 07:42:52;;;;;;;3.00;2.55;;;16.80;99.90;;;;;;4123271;28;20042;-63
2021/08/30 07:44:53;;;;;;;5.35;3.47;;;16.70;99.90;;;;;;4123190;28;20824;-64
2021/08/30 07:46:54;;;;;;;3.65;3.08;;;16.60;99.90;;;;;;4122852;28;20035;-63
2021/08/30 07:48:55;;;;;;;4.65;3.05;;;16.50;99.90;;;;;;4123994;28;20117;-64
2021/08/30 07:50:56;;;;;;;3.13;2.55;;;16.50;99.90;;;;;;4123643;28;20104;-64
2021/08/30 07:52:58;;;;;;;4.80;3.28;;;16.50;99.90;;;;;;4123663;28;20035;-63
2021/08/30 07:54:59;;;;;;;2.97;2.67;;;16.70;99.90;;;;;;4122819;28;20038;-63
2021/08/30 07:57:00;;;;;;;4.53;2.47;;;16.90;99.90;;;;;;4122886;28;20438;-63
2021/08/30 07:59:01;;;;;;;2.70;2.50;;;17.10;99.90;;;;;;4122657;28;20108;-63
2021/08/30 08:01:02;;;;;;;2.17;1.98;;;17.20;99.90;;;;;;4122970;28;20072;-64
2021/08/30 08:03:04;;;;;;;3.70;1.90;;;17.20;99.90;;;;;;4122800;28;20095;-63
2021/08/30 08:05:05;;;;;;;4.55;2.10;;;17.20;99.90;;;;;;4122845;28;20050;-63
2021/08/30 08:07:06;;;;;;;2.85;2.10;;;17.20;99.90;;;;;;4122805;28;20026;-63
2021/08/30 08:09:08;;;;;;;2.83;2.00;;;17.10;99.90;;;;;;4123517;28;20987;-63
2021/08/30 08:11:09;;;;;;;8.35;2.42;;;17.20;99.90;;;;;;4122656;28;20034;-63
2021/08/30 08:13:11;;;;;;;2.85;1.90;;;17.40;99.90;;;;;;4123115;28;20092;-63
2021/08/30 08:15:12;;;;;;;1.70;1.60;;;17.40;99.90;;;;;;4122751;28;20109;-64
2021/08/30 08:17:13;;;;;;;2.10;1.92;;;17.50;99.90;;;;;;4122978;28;20974;-63
2021/08/30 08:19:14;;;;;;;5.38;2.10;;;17.40;99.90;;;;;;4122658;28;20093;-63
2021/08/30 08:21:16;;;;;;;3.70;1.42;;;17.30;99.90;;;;;;4121828;28;20524;-63
2021/08/30 08:23:17;;;;;;;2.75;1.75;;;17.40;99.90;;;;;;4122544;28;20069;-65
2021/08/30 08:25:18;;;;;;;4.85;1.77;;;17.40;99.90;;;;;;4119229;28;20093;-64
2021/08/30 08:27:19;;;;;;;2.28;2.08;;;17.40;99.90;;;;;;4123770;28;20031;-64
2021/08/30 08:29:21;;;;;;;3.60;1.80;;;17.20;99.90;;;;;;4122087;28;20121;-65
2021/08/30 08:31:22;;;;;;;2.55;1.80;;;17.10;99.90;;;;;;4120917;28;20054;-64
2021/08/30 08:33:23;;;;;;;2.65;1.67;;;17.20;99.90;;;;;;4122259;28;21012;-64
2021/08/30 08:35:25;;;;;;;4.85;2.03;;;17.10;99.90;;;;;;4122575;28;20085;-65
2021/08/30 08:37:26;;;;;;;1.73;1.63;;;17.20;99.90;;;;;;4121430;28;20467;-64
2021/08/30 08:39:27;;;;;;;2.45;2.08;;;17.10;99.90;;;;;;4123937;28;20038;-63
2021/08/30 08:41:29;;;;;;;4.10;1.83;;;17.20;99.90;;;;;;4125783;28;20096;-64
2021/08/30 08:43:33;;;;;;;2.90;1.40;;;17.50;99.90;;;;;;4125019;28;20092;-63
2021/08/30 08:45:34;;;;;;;1.67;1.17;;;17.60;99.90;;;;;;4125633;28;20042;-64
2021/08/30 08:47:37;;;;;;;2.85;1.65;;;17.70;99.90;;;;;;4125960;28;20035;-64
2021/08/30 08:49:39;;;;;;;1.77;1.65;;;17.60;99.90;;;;;;4125261;28;20081;-63
2021/08/30 08:51:40;;;;;;;1.27;1.17;;;17.70;99.90;;;;;;4125692;28;20104;-64
2021/08/30 08:53:43;;;;;;;3.85;1.63;;;17.70;99.90;;;;;;4126021;28;20089;-64
2021/08/30 08:55:45;;;;;;;2.80;1.65;;;17.70;99.90;;;;;;4126437;28;20046;-63
2021/08/30 08:57:46;;;;;;;1.30;1.20;;;17.70;99.90;;;;;;4126002;28;20554;-63
2021/08/30 09:00:04;;;;;;;1.90;1.15;;;17.70;99.90;;;;;;4125094;28;20054;-63
2021/08/30 09:02:06;;;;;;;1.85;1.38;;;17.50;99.90;;;;;;4125529;28;20030;-63
2021/08/30 09:04:08;;;;;;;2.55;1.45;;;17.50;99.90;;;;;;4125176;28;20120;-64
2021/08/30 09:06:09;;;;;;;2.60;1.08;;;17.50;99.90;;;;;;4126365;28;20093;-64
2021/08/30 09:08:30;;;;;;;4.70;1.20;;;17.40;99.90;;;;;;4125483;28;20031;-61
2021/08/30 09:10:37;;;;;;;2.72;1.35;;;17.40;99.90;;;;;;4125701;28;20105;-63
2021/08/30 09:12:41;;;;;;;1.90;1.58;;;17.50;99.90;;;;;;4125549;28;20046;-63
2021/08/30 09:14:42;;;;;;;1.60;1.50;;;17.60;99.90;;;;;;4125275;28;20034;-63
2021/08/30 09:16:44;;;;;;;1.95;1.10;;;17.80;99.90;;;;;;4124744;28;20034;-63
2021/08/30 09:18:45;;;;;;;3.85;1.55;;;18.10;99.90;;;;;;4124893;28;20190;-63
2021/08/30 09:20:46;;;;;;;1.30;1.20;;;18.20;99.90;;;;;;4124391;28;20611;-64
2021/08/30 09:22:48;;;;;;;1.67;1.27;;;18.30;99.90;;;;;;4125023;28;20562;-64
2021/08/30 09:24:50;;;;;;;2.78;1.80;;;18.30;99.90;;;;;;4124299;28;20097;-64
2021/08/30 09:27:08;;;;;;;3.78;2.10;;;18.20;99.90;;;;;;4124557;28;20038;-64
2021/08/30 09:29:14;;;;;;;3.53;1.70;;;18.10;99.90;;;;;;4123121;28;20450;-64
2021/08/30 09:31:15;;;;;;;4.88;2.22;;;18.10;99.90;;;;;;4124958;28;20019;-64
2021/08/30 09:33:17;;;;;;;5.22;1.58;;;18.10;99.90;;;;;;4124922;28;20085;-64
2021/08/30 09:35:18;;;;;;;3.97;2.20;;;18.10;99.90;;;;;;4124850;28;20150;-63
2021/08/30 09:37:23;;;;;;;5.20;3.05;;;18.10;99.90;;;;;;4124635;28;20434;-64
2021/08/30 09:39:25;;;;;;;6.18;2.83;;;18.30;99.90;;;;;;4124907;28;20602;-65
2021/08/30 09:41:26;;;;;;;3.60;2.33;;;18.50;99.90;;;;;;4124935;28;20034;-64
2021/08/30 09:43:28;;;;;;;2.95;2.55;;;18.60;99.90;;;;;;4124720;28;20042;-65
2021/08/30 09:45:29;;;;;;;2.55;2.35;;;18.60;99.90;;;;;;4125023;28;20038;-65
2021/08/30 09:47:30;;;;;;;4.55;2.45;;;18.60;99.90;;;;;;4115156;28;20055;-64
2021/08/30 09:49:31;;;;;;;3.63;2.70;;;18.60;99.90;;;;;;4124103;28;20549;-64
2021/08/30 09:51:39;;;;;;;2.35;2.15;;;18.60;99.90;;;;;;4123093;28;20046;-63
2021/08/30 09:53:40;;;;;;;2.38;2.10;;;18.70;99.90;;;;;;4125149;28;20782;-63
2021/08/30 09:55:42;;;;;;;3.28;2.35;;;18.80;99.90;;;;;;4125041;28;20046;-62
2021/08/30 09:57:49;;;;;;;3.20;1.75;;;18.90;99.90;;;;;;4125427;28;20026;-64
2021/08/30 09:59:52;;;;;;;2.55;1.65;;;19.10;99.90;;;;;;4125017;28;20038;-63
2021/08/30 10:01:59;;;;;;;2.78;1.80;;;19.10;99.90;;;;;;4124983;28;20136;-63
2021/08/30 10:04:01;;;;;;;2.85;2.30;;;19.20;99.90;;;;;;4124540;28;20030;-63
2021/08/30 10:06:02;;;;;;;3.95;2.10;;;19.10;99.90;;;;;;4124668;28;20042;-62
2021/08/30 10:08:04;;;;;;;2.97;2.35;;;19.20;99.90;;;;;;4124499;28;20038;-62
2021/08/30 10:10:06;;;;;;;5.80;3.03;;;19.20;99.90;;;;;;4124754;28;20105;-63
2021/08/30 10:12:07;;;;;;;6.07;2.83;;;19.30;99.90;;;;;;4124156;28;20045;-63
2021/08/30 10:14:11;;;;;;;2.67;2.47;;;19.10;99.90;;;;;;4124047;28;20046;-63
2021/08/30 10:16:13;;;;;;;3.63;2.60;;;19.10;99.90;;;;;;4124337;28;20042;-64
2021/08/30 10:18:18;;;;;;;2.08;1.88;;;19.10;99.90;;;;;;4122461;28;20105;-63
2021/08/30 10:20:34;;;;;;;4.65;2.30;;;19.20;99.90;;;;;;4121005;28;20100;-63
2021/08/30 10:22:35;;;;;;;3.80;2.17;;;19.20;99.90;;;;;;4124041;28;20062;-63
2021/08/30 10:24:41;;;;;;;3.22;1.90;;;19.20;99.90;;;;;;4120384;28;20046;-63
2021/08/30 10:26:45;;;;;;;1.80;1.70;;;19.40;99.90;;;;;;4108970;28;20991;-64
2021/08/30 10:28:47;;;;;;;2.10;1.42;;;19.40;99.90;;;;;;4108368;28;20097;-63
2021/08/30 10:30:54;;;;;;;1.60;1.50;;;19.50;99.90;;;;;;4107877;28;20450;-64
2021/08/30 10:32:58;;;;;;;1.92;1.73;;;19.60;99.90;;;;;;4108295;28;20114;-63
2021/08/30 10:34:59;;;;;;;1.83;1.38;;;19.60;99.90;;;;;;4107852;28;20035;-63
2021/08/30 10:37:03;;;;;;;2.40;1.70;;;19.50;99.90;;;;;;4113770;28;20034;-64
2021/08/30 10:39:08;;;;;;;2.92;1.70;;;19.50;99.90;;;;;;4124004;28;20545;-65
2021/08/30 10:41:17;;;;;;;1.60;1.50;;;19.50;99.90;;;;;;4123989;28;20047;-64